Time;durP1;ratioP1;P1;durP2;ratioP2;P2;SDS_P1;SDS_P2;PMS_P1;PMS_P2;Temp;Humidity;BMP_temperature;BMP_pressure;BME280_temperature;BME280_humidity;BME280_pressure;Samples;Min_cycle;Max_cycle;Signal;HPM_P1;HPM_P2
2022/06/13 00:00:16;;;;;;;5.10;1.90;;;17.30;96.20;;;18.28;84.17;98444.41;5000290;28;20512;-78
2022/06/13 00:02:47;;;;;;;5.57;1.77;;;17.30;96.40;;;18.31;84.89;98445.78;4998457;28;20468;-78
2022/06/13 00:05:20;;;;;;;6.53;2.00;;;17.30;96.50;;;18.26;84.35;98448.31;4999058;28;20463;-80
2022/06/13 00:07:49;;;;;;;3.40;1.53;;;17.30;96.40;;;18.22;84.54;98447.16;4998980;28;20488;-78
2022/06/13 00:10:19;;;;;;;2.27;1.40;;;17.30;96.50;;;18.21;84.73;98459.59;4999747;28;20470;-78
2022/06/13 00:12:49;;;;;;;2.90;1.70;;;17.10;96.50;;;18.09;85.41;98466.66;4998758;28;20486;-78
2022/06/13 00:15:19;;;;;;;4.30;1.40;;;17.20;96.40;;;18.07;86.48;98468.75;5003957;28;20478;-79
2022/06/13 00:17:49;;;;;;;6.10;2.27;;;17.00;96.60;;;18.00;86.36;98468.03;5000270;28;20510;-78
2022/06/13 00:20:20;;;;;;;4.50;1.97;;;17.10;96.50;;;17.99;86.70;98472.50;5000690;28;20812;-78
2022/06/13 00:22:50;;;;;;;6.70;2.30;;;17.00;96.80;;;17.96;86.62;98474.78;4999436;28;20529;-78
2022/06/13 00:25:20;;;;;;;2.73;1.57;;;17.00;96.60;;;17.90;87.31;98486.28;5000319;28;21239;-78
2022/06/13 00:27:50;;;;;;;3.23;1.90;;;17.00;96.60;;;17.87;87.23;98473.50;4996360;28;20894;-78
2022/06/13 00:30:20;;;;;;;7.57;2.07;;;16.90;96.80;;;17.87;87.84;98481.44;5000811;28;20463;-78
2022/06/13 00:32:51;;;;;;;3.77;1.70;;;16.90;97.20;;;17.77;88.17;98474.00;5001469;28;20468;-78
2022/06/13 00:35:24;;;;;;;7.50;2.03;;;16.80;97.00;;;17.75;89.18;98473.44;4997888;28;21393;-78
2022/06/13 00:37:54;;;;;;;4.27;2.07;;;16.90;97.30;;;17.80;89.38;98486.00;5000760;28;20489;-79
2022/06/13 00:40:24;;;;;;;10.93;2.50;;;16.70;97.40;;;17.73;89.18;98478.16;4999077;28;20468;-78
2022/06/13 00:42:53;;;;;;;9.50;1.90;;;16.70;97.30;;;17.69;90.40;98478.81;4999699;28;20475;-78
2022/06/13 00:45:26;;;;;;;6.40;1.73;;;16.60;97.60;;;17.71;89.89;98477.53;4998159;28;20537;-79
2022/06/13 00:47:57;;;;;;;4.57;2.30;;;16.60;97.50;;;17.51;91.18;98479.56;4997964;28;20511;-78
2022/06/13 00:50:34;;;;;;;5.70;1.90;;;16.70;97.30;;;17.45;91.79;98483.94;4999418;28;20452;-79
2022/06/13 00:53:10;;;;;;;9.70;2.00;;;16.70;97.50;;;17.47;92.32;98491.63;5000557;28;20455;-78
2022/06/13 00:55:44;;;;;;;6.37;2.13;;;16.50;97.80;;;17.44;92.02;98486.78;5003629;28;20575;-79
2022/06/13 00:58:15;;;;;;;5.80;1.60;;;16.50;98.00;;;17.37;93.04;98488.69;5002175;28;20517;-79
2022/06/13 01:00:52;;;;;;;6.60;1.77;;;16.50;98.00;;;17.37;93.47;98486.84;4999881;28;20942;-79
2022/06/13 01:03:23;;;;;;;5.77;1.97;;;16.40;97.80;;;17.32;93.76;98489.31;4996104;28;20463;-78
2022/06/13 01:05:56;;;;;;;5.30;1.90;;;16.40;98.10;;;17.28;93.56;98485.53;4998320;28;20517;-78
2022/06/13 01:08:28;;;;;;;7.70;2.13;;;16.40;98.20;;;17.27;94.32;98485.72;4995682;28;20465;-79
2022/06/13 01:11:18;;;;;;;10.50;2.60;;;16.40;98.00;;;17.23;94.72;98481.91;4999619;28;20462;-79
2022/06/13 01:14:20;;;;;;;3.10;2.03;;;16.30;98.20;;;17.24;95.31;98484.34;4995421;28;21039;-78
2022/06/13 01:17:12;;;;;;;2.23;1.67;;;16.20;98.50;;;17.23;94.99;98487.19;4999166;28;20465;-78
2022/06/13 01:20:26;;;;;;;3.43;1.73;;;16.20;98.60;;;17.11;95.55;98493.19;4996881;28;20467;-78
2022/06/13 01:23:59;;;;;;;5.83;2.20;;;16.30;98.30;;;17.13;96.28;98487.69;4995851;28;20486;-78
2022/06/13 01:27:09;;;;;;;4.80;1.83;;;16.10;98.50;;;17.03;96.23;98490.84;4991011;28;20466;-78
2022/06/13 01:29:57;;;;;;;5.53;2.03;;;16.10;98.60;;;17.01;96.17;98486.78;5000955;28;20456;-79
2022/06/13 01:32:52;;;;;;;5.97;2.17;;;16.00;98.70;;;16.97;97.08;98483.75;4994730;28;20916;-79
2022/06/13 01:35:55;;;;;;;7.60;2.20;;;16.00;98.90;;;16.92;96.86;98480.97;4996803;28;20502;-79
2022/06/13 01:38:59;;;;;;;9.00;2.00;;;16.00;98.70;;;16.86;97.31;98475.75;4996584;28;21031;-78
2022/06/13 01:41:38;;;;;;;4.20;2.00;;;15.90;98.80;;;16.78;98.43;98474.19;4994859;28;20462;-79
2022/06/13 01:44:17;;;;;;;3.60;1.90;;;15.90;98.70;;;16.82;98.71;98479.84;4997480;28;20512;-78
2022/06/13 01:46:59;;;;;;;3.93;1.90;;;15.80;99.00;;;16.75;99.14;98474.63;4996844;28;20464;-78
2022/06/13 01:49:38;;;;;;;7.27;2.00;;;15.70;99.20;;;16.69;99.06;98480.78;4997794;28;20570;-78
2022/06/13 01:52:22;;;;;;;3.83;1.87;;;15.70;99.00;;;16.71;99.50;98477.91;4998081;28;20475;-78
2022/06/13 01:55:00;;;;;;;6.27;2.50;;;15.60;99.20;;;16.62;99.35;98469.44;4999886;28;20471;-79
2022/06/13 01:57:40;;;;;;;5.47;1.80;;;15.60;99.10;;;16.61;100.00;98475.75;4997002;28;20572;-78
2022/06/13 02:00:17;;;;;;;5.37;2.00;;;15.60;99.50;;;16.50;100.00;98479.84;4998756;28;20525;-79
2022/06/13 02:02:54;;;;;;;1.80;1.40;;;15.60;99.40;;;16.46;100.00;98477.84;4999936;28;20982;-78
2022/06/13 02:05:34;;;;;;;8.70;2.07;;;15.50;99.20;;;16.43;100.00;98479.09;5000520;28;21070;-78
2022/06/13 02:08:15;;;;;;;7.60;1.87;;;15.50;99.50;;;16.34;100.00;98480.38;4999030;28;21223;-78
2022/06/13 02:10:57;;;;;;;3.47;1.87;;;15.50;99.40;;;16.27;100.00;98479.59;5000927;28;20962;-78
2022/06/13 02:13:37;;;;;;;9.50;2.03;;;15.40;99.50;;;16.33;100.00;98478.75;4997128;28;21022;-78
2022/06/13 02:16:15;;;;;;;4.20;2.03;;;15.40;99.60;;;16.34;100.00;98477.75;4999101;28;20467;-79
2022/06/13 02:19:00;;;;;;;3.93;1.90;;;15.40;99.40;;;16.29;100.00;98477.56;5001518;28;20495;-78
2022/06/13 02:21:41;;;;;;;9.30;2.30;;;15.30;99.40;;;16.26;100.00;98462.16;4996538;28;20466;-79
2022/06/13 02:24:18;;;;;;;11.80;2.83;;;15.30;99.50;;;16.19;100.00;98471.13;4996615;28;20462;-78
2022/06/13 02:26:56;;;;;;;4.87;2.37;;;15.20;99.60;;;16.17;100.00;98471.34;4996997;28;20459;-78
2022/06/13 02:29:34;;;;;;;2.63;1.60;;;15.20;99.80;;;16.21;100.00;98467.25;4996117;28;20495;-78
2022/06/13 02:32:14;;;;;;;9.87;2.67;;;15.10;99.80;;;16.14;100.00;98468.31;4996659;28;20459;-79
2022/06/13 02:34:54;;;;;;;4.60;1.67;;;15.10;99.80;;;16.07;100.00;98463.06;4997600;28;20468;-78
2022/06/13 02:37:32;;;;;;;4.90;1.90;;;15.10;99.60;;;16.04;100.00;98466.13;4996564;28;21288;-78
2022/06/13 02:40:11;;;;;;;5.50;2.30;;;15.10;99.90;;;15.99;100.00;98458.03;4996338;28;21361;-78
2022/06/13 02:42:46;;;;;;;6.33;1.87;;;15.00;99.90;;;15.92;100.00;98457.28;4996509;28;20471;-79
2022/06/13 02:45:22;;;;;;;3.73;1.80;;;15.00;99.80;;;15.86;100.00;98468.66;4996140;28;20881;-78
2022/06/13 02:48:01;;;;;;;7.83;2.03;;;14.90;99.90;;;15.88;100.00;98467.44;4996919;28;20454;-78
2022/06/13 02:50:43;;;;;;;6.90;1.90;;;14.90;99.90;;;15.73;100.00;98473.97;4996762;28;20550;-78
2022/06/13 02:53:23;;;;;;;8.30;1.80;;;14.90;99.80;;;15.75;100.00;98474.59;4995017;28;20447;-78
2022/06/13 02:56:10;;;;;;;4.80;1.83;;;14.80;99.90;;;15.66;100.00;98475.81;4999387;28;20464;-78
2022/06/13 02:58:54;;;;;;;5.53;2.97;;;14.70;99.90;;;15.64;100.00;98491.06;4997263;28;20483;-78
2022/06/13 03:01:32;;;;;;;3.50;2.00;;;14.70;99.90;;;15.59;100.00;98491.66;4999365;28;20464;-78
2022/06/13 03:04:29;;;;;;;12.07;2.43;;;14.60;99.90;;;15.59;100.00;98489.84;4998519;28;20828;-77
2022/06/13 03:07:15;;;;;;;5.53;1.90;;;14.60;99.90;;;15.54;100.00;98492.31;4997091;28;21191;-75
2022/06/13 03:09:54;;;;;;;24.03;10.90;;;14.60;99.90;;;15.59;100.00;98484.56;4996623;28;20467;-78
2022/06/13 03:12:36;;;;;;;5.47;2.10;;;14.60;99.90;;;15.59;100.00;98494.31;4995528;28;20490;-78
2022/06/13 03:15:15;;;;;;;4.30;1.80;;;14.60;99.90;;;15.56;100.00;98490.28;4995549;28;20464;-77
2022/06/13 03:17:55;;;;;;;3.27;2.17;;;14.60;99.90;;;15.53;100.00;98489.88;4996791;28;20463;-77
2022/06/13 03:20:37;;;;;;;3.40;1.60;;;14.60;99.90;;;15.51;100.00;98492.72;4996050;28;21036;-77
2022/06/13 03:23:12;;;;;;;6.40;2.00;;;14.60;99.90;;;15.58;100.00;98497.97;4999636;28;21487;-78
2022/06/13 03:25:51;;;;;;;3.80;1.80;;;14.50;99.90;;;15.48;100.00;98498.41;4996917;28;20446;-77
2022/06/13 03:28:27;;;;;;;4.73;2.30;;;14.50;99.90;;;15.41;100.00;98502.06;4995733;28;20470;-77
2022/06/13 03:31:05;;;;;;;3.90;1.70;;;14.60;99.90;;;15.32;100.00;98506.72;4999615;28;20556;-77
2022/06/13 03:33:41;;;;;;;4.20;2.00;;;14.50;99.90;;;15.31;100.00;98502.47;4994985;28;20541;-79
2022/06/13 03:36:19;;;;;;;6.70;2.30;;;14.40;99.90;;;15.28;100.00;98516.03;4995311;28;20537;-78
2022/06/13 03:38:56;;;;;;;5.97;2.00;;;14.40;99.90;;;15.28;100.00;98518.69;4995562;28;20613;-78
2022/06/13 03:41:33;;;;;;;3.77;2.37;;;14.40;99.90;;;15.19;100.00;98509.38;4996273;28;20499;-78
2022/06/13 03:44:13;;;;;;;2.90;1.60;;;14.40;99.90;;;15.23;100.00;98520.31;4997423;28;20463;-78
2022/06/13 03:46:52;;;;;;;6.10;2.50;;;14.20;99.90;;;15.22;100.00;98530.06;4993653;28;20555;-78
2022/06/13 03:49:29;;;;;;;3.97;1.77;;;14.20;99.90;;;15.27;100.00;98526.81;4997103;28;20464;-78
2022/06/13 03:52:04;;;;;;;4.13;1.93;;;14.20;99.90;;;15.25;100.00;98527.00;4995520;28;20467;-78
2022/06/13 03:54:40;;;;;;;4.30;1.90;;;14.20;99.90;;;15.18;100.00;98535.91;4993662;28;20534;-78
2022/06/13 03:57:21;;;;;;;3.93;1.90;;;14.10;99.90;;;15.16;100.00;98537.97;4996617;28;20458;-78
2022/06/13 03:59:58;;;;;;;9.40;2.20;;;14.10;99.90;;;15.12;100.00;98534.94;4994278;28;20503;-78
2022/06/13 04:02:34;;;;;;;3.23;1.70;;;14.10;99.90;;;15.02;100.00;98534.53;4992921;28;20475;-78
2022/06/13 04:05:06;;;;;;;2.63;1.60;;;14.10;99.90;;;15.10;100.00;98536.94;4997794;28;20925;-83
2022/06/13 04:07:38;;;;;;;12.67;3.30;;;14.00;99.90;;;15.07;100.00;98532.06;4997147;28;20494;-78
2022/06/13 04:10:15;;;;;;;8.23;2.40;;;14.10;99.90;;;15.02;100.00;98545.06;4996897;28;21020;-77
2022/06/13 04:13:29;;;;;;;4.23;2.40;;;14.10;99.90;;;15.00;100.00;98539.16;4999901;28;20482;-77
2022/06/13 04:16:26;;;;;;;2.80;2.00;;;14.00;99.90;;;14.94;100.00;98542.63;4997928;28;20472;-77
2022/06/13 04:19:27;;;;;;;7.50;2.20;;;14.00;99.90;;;14.93;100.00;98546.25;4998166;28;20514;-78
2022/06/13 04:22:09;;;;;;;3.50;1.90;;;14.00;99.90;;;14.91;100.00;98550.94;4998187;28;20464;-78
2022/06/13 04:24:59;;;;;;;61.53;23.33;;;14.00;99.90;;;14.88;100.00;98548.69;4999388;28;20518;-81
2022/06/13 04:27:38;;;;;;;7.57;2.97;;;13.90;99.90;;;14.89;100.00;98550.34;4999438;28;21246;-78
2022/06/13 04:30:17;;;;;;;4.97;2.13;;;13.90;99.90;;;14.94;100.00;98551.34;4999371;28;20475;-78
2022/06/13 04:32:56;;;;;;;2.70;1.97;;;13.90;99.90;;;14.92;100.00;98550.75;4997423;28;20469;-78
2022/06/13 04:35:27;;;;;;;6.20;2.53;;;13.90;99.90;;;14.97;100.00;98547.47;5001012;28;20542;-78
2022/06/13 04:38:00;;;;;;;2.30;1.53;;;13.90;99.90;;;15.02;100.00;98555.59;5002325;28;20500;-78
2022/06/13 04:40:34;;;;;;;5.80;2.23;;;13.90;99.90;;;15.04;100.00;98550.94;5001149;28;20500;-78
2022/06/13 04:43:07;;;;;;;8.30;2.10;;;14.00;99.90;;;15.07;100.00;98558.41;5001366;28;20506;-77
2022/06/13 04:45:50;;;;;;;3.43;2.10;;;14.00;99.90;;;15.10;100.00;98564.09;5000524;28;20459;-78
2022/06/13 04:48:21;;;;;;;4.70;2.20;;;13.90;99.90;;;15.06;100.00;98564.72;5003512;28;20463;-78
2022/06/13 04:50:58;;;;;;;2.80;2.10;;;14.00;99.90;;;15.06;100.00;98559.44;5003237;28;20450;-78
2022/06/13 04:53:35;;;;;;;9.03;2.20;;;14.00;99.90;;;15.13;100.00;98567.34;5003288;28;20948;-78
2022/06/13 04:56:04;;;;;;;2.73;1.97;;;14.00;99.90;;;15.16;100.00;98561.69;5003344;28;20866;-78
2022/06/13 04:58:38;;;;;;;6.13;2.70;;;14.10;99.90;;;15.19;100.00;98556.81;5001825;28;20467;-78
2022/06/13 05:01:21;;;;;;;6.10;2.40;;;14.10;99.90;;;15.21;100.00;98560.03;5003538;28;20475;-78
2022/06/13 05:03:53;;;;;;;4.63;2.17;;;14.20;99.90;;;15.25;100.00;98561.25;5003678;28;20459;-78
2022/06/13 05:06:35;;;;;;;3.37;2.10;;;14.20;99.90;;;15.21;100.00;98560.03;5002240;28;20997;-78
2022/06/13 05:09:20;;;;;;;5.67;2.07;;;14.30;99.90;;;15.19;100.00;98553.34;5003292;28;20460;-78
2022/06/13 05:11:57;;;;;;;8.10;2.50;;;14.30;99.90;;;15.21;100.00;98553.94;5000495;28;20540;-78
2022/06/13 05:14:37;;;;;;;7.30;2.27;;;14.30;99.90;;;15.24;100.00;98562.25;5002527;28;20498;-78
2022/06/13 05:18:11;;;;;;;12.40;2.30;;;14.30;99.90;;;15.30;100.00;98565.91;5000699;28;20543;-78
2022/06/13 05:20:52;;;;;;;9.00;2.20;;;14.40;99.90;;;15.35;100.00;98566.91;5001218;28;20502;-78
2022/06/13 05:23:44;;;;;;;2.60;1.73;;;14.40;99.90;;;15.40;100.00;98558.41;5001397;28;20492;-78
2022/06/13 05:26:14;;;;;;;9.10;2.33;;;14.40;99.90;;;15.43;100.00;98563.25;5003803;28;20455;-78
2022/06/13 05:28:44;;;;;;;7.10;2.17;;;14.50;99.90;;;15.47;100.00;98570.56;5001536;28;20470;-78
2022/06/13 05:31:20;;;;;;;5.90;1.80;;;14.50;99.90;;;15.53;100.00;98576.88;5001962;28;21079;-79
2022/06/13 05:33:55;;;;;;;6.50;2.40;;;14.60;99.90;;;15.55;100.00;98575.63;5001447;28;20962;-78
2022/06/13 05:36:27;;;;;;;6.10;2.00;;;14.60;99.90;;;15.59;100.00;98579.50;5001755;28;20555;-78
2022/06/13 05:39:02;;;;;;;6.40;2.47;;;14.60;99.90;;;15.64;100.00;98570.97;5001646;28;20517;-78
2022/06/13 05:41:32;;;;;;;4.20;2.43;;;14.60;99.90;;;15.70;100.00;98585.16;5004362;28;20483;-78
2022/06/13 05:44:03;;;;;;;4.93;2.00;;;14.70;99.90;;;15.74;100.00;98581.09;5002981;28;20502;-78
2022/06/13 05:46:37;;;;;;;4.77;2.40;;;14.80;99.90;;;15.79;100.00;98576.00;5001579;28;20544;-79
2022/06/13 05:49:12;;;;;;;5.47;1.97;;;14.80;99.90;;;15.83;100.00;98575.38;5002521;28;20455;-78
2022/06/13 05:51:43;;;;;;;8.20;2.43;;;14.90;99.90;;;15.87;100.00;98575.78;5002077;28;20473;-78
2022/06/13 05:54:14;;;;;;;5.60;2.33;;;14.90;99.90;;;15.93;100.00;98577.59;5004569;28;21350;-78
2022/06/13 05:56:45;;;;;;;6.20;2.70;;;14.90;99.90;;;15.99;100.00;98584.69;5002362;28;20455;-78
2022/06/13 05:59:14;;;;;;;3.03;2.03;;;15.00;99.90;;;16.02;100.00;98574.50;5003104;28;20452;-78
2022/06/13 06:01:44;;;;;;;4.23;2.23;;;15.00;99.90;;;16.08;100.00;98571.03;5002573;28;20495;-78
2022/06/13 06:04:16;;;;;;;3.77;2.00;;;15.00;99.90;;;16.12;100.00;98574.06;5002595;28;20481;-78
2022/06/13 06:06:46;;;;;;;5.17;1.83;;;15.10;99.90;;;16.16;100.00;98569.19;5000288;28;20463;-78
2022/06/13 06:09:16;;;;;;;6.07;2.20;;;15.10;99.90;;;16.22;100.00;98571.78;5002982;28;20474;-78
2022/06/13 06:11:47;;;;;;;11.77;3.10;;;15.20;99.90;;;16.25;100.00;98579.28;5000324;28;20514;-78
2022/06/13 06:14:17;;;;;;;10.07;2.63;;;15.30;99.90;;;16.23;100.00;98581.34;5002541;28;20999;-78
2022/06/13 06:16:47;;;;;;;4.30;2.20;;;15.40;99.90;;;16.28;100.00;98578.84;5001508;28;20452;-78
2022/06/13 06:19:18;;;;;;;5.37;2.00;;;15.40;99.90;;;16.33;100.00;98592.25;5001139;28;20464;-78
2022/06/13 06:21:49;;;;;;;3.80;2.10;;;15.50;99.90;;;16.37;100.00;98588.19;5002725;28;20483;-78
2022/06/13 06:24:20;;;;;;;5.60;2.67;;;15.50;99.90;;;16.42;100.00;98585.69;5001351;28;20460;-78
2022/06/13 06:26:50;;;;;;;5.37;2.03;;;15.60;99.90;;;16.50;100.00;98592.56;5003435;28;20446;-79
2022/06/13 06:29:20;;;;;;;15.00;2.40;;;15.60;99.90;;;16.57;100.00;98583.63;5001134;28;20505;-78
2022/06/13 06:31:51;;;;;;;9.90;2.27;;;15.70;99.90;;;16.59;97.73;98589.50;5002748;28;20518;-78
2022/06/13 06:34:23;;;;;;;8.00;2.53;;;15.70;99.10;;;16.63;96.04;98591.72;4999802;28;20598;-78
2022/06/13 06:36:54;;;;;;;8.50;2.33;;;15.80;98.90;;;16.71;95.14;98588.81;5001287;28;20459;-78
2022/06/13 06:39:24;;;;;;;5.70;1.70;;;15.90;98.50;;;16.74;93.44;98588.41;5002949;28;20444;-79
2022/06/13 06:41:55;;;;;;;6.13;2.20;;;16.00;98.60;;;16.77;92.44;98598.53;5000218;28;21028;-78
2022/06/13 06:44:27;;;;;;;6.70;2.13;;;16.00;98.30;;;16.82;93.07;98596.88;5001600;28;20976;-78
2022/06/13 06:46:55;;;;;;;3.87;2.40;;;16.00;98.20;;;16.87;90.54;98598.91;5000801;28;20454;-78
2022/06/13 06:49:32;;;;;;;4.90;2.00;;;16.10;97.70;;;16.92;89.54;98601.69;5003292;28;20462;-78
2022/06/13 06:52:02;;;;;;;4.43;2.50;;;16.10;97.70;;;16.96;88.63;98600.25;5001009;28;20466;-78
2022/06/13 07:00:10;;;;;;;5.83;1.93;;;16.20;97.50;;;17.06;88.22;98597.94;5000320;28;20882;-78
2022/06/13 07:02:41;;;;;;;4.30;1.77;;;16.30;97.40;;;17.09;85.33;98594.88;5001257;28;20448;-78
2022/06/13 07:05:13;;;;;;;2.87;1.90;;;16.30;96.40;;;17.12;84.21;98594.44;5002743;28;20443;-78
2022/06/13 07:07:43;;;;;;;4.93;1.90;;;16.30;96.40;;;17.15;81.79;98594.00;5001414;28;21120;-78
2022/06/13 07:10:14;;;;;;;3.90;1.73;;;16.40;96.10;;;17.17;81.27;98584.03;5002678;28;21001;-78
2022/06/13 07:12:45;;;;;;;5.67;1.77;;;16.40;95.90;;;17.21;80.12;98587.88;5000895;28;20998;-78
2022/06/13 07:15:16;;;;;;;10.90;2.50;;;16.40;95.30;;;17.25;79.34;98596.97;5001207;28;21057;-78
2022/06/13 07:17:45;;;;;;;4.23;1.80;;;16.50;95.30;;;17.27;78.58;98581.72;5001565;28;20455;-79
2022/06/13 07:20:17;;;;;;;7.03;1.93;;;16.60;95.20;;;17.31;77.24;98587.38;5002073;28;20457;-78
2022/06/13 07:22:48;;;;;;;4.13;2.00;;;16.60;94.80;;;17.36;77.44;98598.09;5000877;28;20487;-78
2022/06/13 07:25:21;;;;;;;7.97;2.00;;;16.60;94.90;;;17.38;76.29;98596.06;4998709;28;21471;-78
2022/06/13 07:27:51;;;;;;;3.80;1.93;;;16.60;94.80;;;17.44;76.80;98595.19;5000006;28;20522;-78
2022/06/13 07:30:27;;;;;;;4.10;1.77;;;16.70;95.00;;;17.48;79.26;98601.66;5001575;28;20475;-78
2022/06/13 07:32:57;;;;;;;4.13;2.17;;;16.60;95.90;;;17.53;78.25;98599.97;4998260;28;20459;-78
2022/06/13 07:35:29;;;;;;;3.93;2.23;;;16.70;95.20;;;17.57;77.51;98597.75;4999815;28;20459;-78
2022/06/13 07:38:18;;;;;;;2.50;1.77;;;16.80;95.40;;;17.63;77.97;98610.13;5000837;28;20466;-78
2022/06/13 07:40:56;;;;;;;9.17;1.80;;;16.80;95.60;;;17.66;76.21;98603.56;5001775;28;20458;-78
2022/06/13 07:43:32;;;;;;;6.13;1.80;;;16.90;94.70;;;17.66;75.14;98600.94;4998821;28;20858;-78
2022/06/13 07:46:04;;;;;;;11.00;1.80;;;17.00;94.60;;;17.68;74.62;98601.50;5002919;28;20967;-78
2022/06/13 07:48:35;;;;;;;8.23;1.63;;;16.90;94.40;;;17.70;74.75;98610.06;5005361;28;20452;-78
2022/06/13 07:51:07;;;;;;;8.83;2.13;;;17.00;94.40;;;17.72;72.37;98600.84;5006322;28;20470;-78
2022/06/13 07:53:36;;;;;;;8.63;1.73;;;17.00;93.80;;;17.75;72.51;98608.34;5005155;28;20510;-78
2022/06/13 07:56:29;;;;;;;3.53;1.67;;;17.00;94.00;;;17.78;72.60;98607.09;5004775;28;20950;-78
2022/06/13 07:59:00;;;;;;;5.30;1.60;;;17.10;94.00;;;17.82;71.97;98603.81;5006984;28;20439;-78
2022/06/13 08:01:30;;;;;;;6.37;1.73;;;17.10;93.80;;;17.87;70.54;98596.03;5003382;28;20707;-78
2022/06/13 08:04:00;;;;;;;5.60;2.03;;;17.20;93.60;;;17.88;66.51;98607.41;5005237;28;20553;-78
2022/06/13 08:06:32;;;;;;;9.50;2.30;;;17.20;92.50;;;17.94;67.45;98611.84;5004859;28;21198;-79
2022/06/13 08:09:02;;;;;;;2.70;1.73;;;17.30;92.70;;;17.98;68.52;98603.22;5005974;28;20493;-78
2022/06/13 08:11:38;;;;;;;5.40;1.87;;;17.30;93.20;;;18.01;68.49;98610.72;5003064;28;20514;-78
2022/06/13 08:14:09;;;;;;;21.00;2.00;;;17.30;93.00;;;18.03;64.75;98605.22;5003943;28;20555;-78
2022/06/13 08:16:39;;;;;;;4.67;1.83;;;17.40;92.10;;;18.10;65.22;98603.28;5004002;28;20552;-78
2022/06/13 08:19:09;;;;;;;3.20;1.83;;;17.40;92.40;;;18.14;66.47;98607.13;5002263;28;20525;-78
2022/06/13 08:21:40;;;;;;;3.90;1.43;;;17.40;92.70;;;18.13;65.37;98607.34;5003053;28;20491;-78
2022/06/13 08:24:09;;;;;;;8.53;2.00;;;17.40;92.20;;;18.16;65.75;98606.88;5002375;28;20499;-78
2022/06/13 08:26:44;;;;;;;10.90;1.93;;;17.50;92.40;;;18.21;66.17;98605.22;5003788;28;20463;-78
2022/06/13 08:29:14;;;;;;;5.50;1.70;;;17.50;92.70;;;18.25;68.41;98598.44;5001441;28;20805;-78
2022/06/13 08:31:45;;;;;;;4.63;1.47;;;17.60;93.30;;;18.30;67.28;98600.41;5004286;28;20832;-78
2022/06/13 08:34:15;;;;;;;4.30;1.83;;;17.60;92.80;;;18.27;65.85;98601.66;5003282;28;20459;-78
2022/06/13 08:36:47;;;;;;;9.03;1.87;;;17.70;92.40;;;18.30;66.37;98605.69;5004064;28;20515;-78
2022/06/13 08:39:18;;;;;;;10.13;2.40;;;17.70;92.70;;;18.31;65.47;98608.13;5003949;28;20558;-78
2022/06/13 08:42:01;;;;;;;5.00;1.73;;;17.70;92.30;;;18.33;64.86;98606.06;5003878;28;20585;-78
2022/06/13 08:44:55;;;;;;;3.37;2.00;;;17.70;92.20;;;18.39;64.65;98613.13;5004216;28;20739;-78
2022/06/13 08:47:43;;;;;;;2.10;1.40;;;17.80;92.20;;;18.40;63.46;98606.78;5002272;28;20467;-78
2022/06/13 08:50:41;;;;;;;6.87;1.90;;;17.80;91.80;;;18.40;61.13;98612.09;5004055;28;20440;-78
2022/06/13 08:53:21;;;;;;;4.27;1.60;;;17.70;91.10;;;18.39;60.15;98610.50;5004118;28;20472;-78
2022/06/13 08:55:57;;;;;;;7.17;1.97;;;17.80;90.80;;;18.39;60.73;98623.75;5002107;28;20873;-78
2022/06/13 08:58:35;;;;;;;6.40;1.80;;;17.80;90.90;;;18.46;60.56;98621.00;5003218;28;20442;-78
2022/06/13 09:01:14;;;;;;;5.80;1.60;;;17.90;91.00;;;18.49;59.97;98618.72;5004935;28;20436;-78
2022/06/13 09:03:55;;;;;;;2.50;1.53;;;17.90;90.80;;;18.56;60.50;98622.13;5003059;28;20520;-78
2022/06/13 09:06:37;;;;;;;2.60;1.50;;;18.00;90.90;;;18.60;59.87;98623.25;5002429;28;21007;-78
2022/06/13 09:09:19;;;;;;;4.10;1.80;;;18.00;90.70;;;18.66;59.57;98620.75;5002633;28;20490;-78
2022/06/13 09:12:10;;;;;;;3.70;1.60;;;18.00;90.80;;;18.71;61.14;98621.69;5002278;28;20488;-78
2022/06/13 09:14:48;;;;;;;5.50;2.03;;;18.10;91.50;;;18.78;60.35;98629.59;5001087;28;20843;-78
2022/06/13 09:17:29;;;;;;;4.27;1.60;;;18.10;91.00;;;18.83;58.86;98632.34;5003613;28;20826;-78
2022/06/13 09:20:10;;;;;;;4.63;2.20;;;18.20;90.50;;;18.88;57.61;98648.41;5002564;28;20483;-78
2022/06/13 09:22:50;;;;;;;6.03;2.13;;;18.30;90.30;;;18.92;57.85;98628.34;5004718;28;20478;-78
2022/06/13 09:25:36;;;;;;;7.70;2.00;;;18.20;90.30;;;18.98;57.13;98638.06;5003752;28;20473;-78
2022/06/13 09:28:15;;;;;;;6.87;2.00;;;18.30;90.00;;;19.02;58.48;98625.97;5003763;28;20478;-78
2022/06/13 09:30:50;;;;;;;5.80;1.97;;;18.40;90.60;;;19.07;59.27;98626.09;5003742;28;20513;-78
2022/06/13 09:33:31;;;;;;;4.30;1.57;;;18.50;90.90;;;19.11;58.40;98635.22;5004595;28;20474;-78
2022/06/13 09:36:07;;;;;;;5.10;1.83;;;18.50;90.50;;;19.14;57.51;98633.94;5002540;28;20467;-78
2022/06/13 09:38:45;;;;;;;12.77;2.73;;;18.50;90.10;;;19.19;57.79;98637.53;5003340;28;20454;-78
2022/06/13 09:41:46;;;;;;;5.53;1.93;;;18.60;90.30;;;19.28;58.06;98625.56;5003618;28;20497;-78
2022/06/13 09:44:32;;;;;;;3.20;1.70;;;18.70;90.50;;;19.36;57.98;98627.88;5003960;28;20487;-78
2022/06/13 09:47:15;;;;;;;3.07;1.77;;;18.70;90.60;;;19.47;60.06;98623.66;5001475;28;20464;-78
2022/06/13 09:50:04;;;;;;;3.77;1.83;;;18.80;91.50;;;19.53;59.86;98625.38;5002435;28;20459;-78
2022/06/13 09:52:48;;;;;;;5.63;2.00;;;18.80;91.30;;;19.49;59.05;98645.44;5001257;28;20526;-78
2022/06/13 09:55:28;;;;;;;13.33;2.10;;;18.80;90.60;;;19.44;57.68;98643.47;5001970;28;20541;-78
2022/06/13 09:58:14;;;;;;;6.87;2.27;;;18.90;90.20;;;19.50;58.04;98644.41;5000764;28;20533;-78
2022/06/13 10:00:58;;;;;;;5.90;2.00;;;18.90;90.50;;;19.53;57.46;98631.50;5003187;28;20459;-78
2022/06/13 10:03:49;;;;;;;6.03;2.40;;;19.00;90.40;;;19.56;57.75;98628.38;5001868;28;20535;-78
2022/06/13 10:06:32;;;;;;;6.70;2.30;;;19.00;90.50;;;19.63;57.11;98638.06;5003792;28;20455;-78
2022/06/13 10:09:21;;;;;;;4.23;1.70;;;19.00;90.20;;;19.70;56.52;98628.16;5002980;28;20497;-78
2022/06/13 10:12:03;;;;;;;3.40;1.53;;;19.10;90.00;;;19.75;54.15;98620.31;4999104;28;20487;-78
2022/06/13 10:14:57;;;;;;;4.07;1.90;;;19.10;87.70;;;19.79;53.64;98621.44;5001513;28;20541;-78
2022/06/13 10:17:50;;;;;;;7.10;2.30;;;19.10;87.50;;;19.84;53.93;98627.69;5002017;28;20487;-78
2022/06/13 10:20:35;;;;;;;2.90;1.70;;;19.20;88.10;;;19.89;55.19;98633.09;5001893;28;20466;-78
2022/06/13 10:23:15;;;;;;;4.40;1.90;;;19.30;89.30;;;19.93;56.52;98630.78;5001037;28;20494;-78
2022/06/13 10:26:03;;;;;;;3.93;1.80;;;19.30;90.20;;;19.96;55.92;98630.31;5001837;28;20873;-78
2022/06/13 10:29:13;;;;;;;7.17;2.33;;;19.30;89.90;;;19.94;55.79;98625.25;5001506;28;20958;-79
2022/06/13 10:32:07;;;;;;;6.67;2.10;;;19.30;89.70;;;19.97;56.54;98621.31;4995224;28;20493;-78
2022/06/13 10:34:59;;;;;;;5.80;1.90;;;19.30;90.30;;;20.02;55.89;98621.44;5000135;28;20899;-78
2022/06/13 10:37:45;;;;;;;6.20;2.57;;;19.40;89.80;;;20.09;56.01;98620.28;5002784;28;20460;-78
2022/06/13 10:40:17;;;;;;;4.00;1.53;;;19.40;90.40;;;20.18;57.52;98619.91;5000078;28;20549;-78
2022/06/13 10:42:47;;;;;;;9.00;2.60;;;19.50;90.20;;;20.20;53.78;98609.88;5001369;28;20521;-78
2022/06/13 10:45:18;;;;;;;6.43;1.70;;;19.60;88.10;;;20.29;55.68;98611.94;5000126;28;20483;-78
2022/06/13 10:47:57;;;;;;;6.53;1.67;;;19.70;90.00;;;20.28;51.73;98614.81;5002068;28;20476;-78
2022/06/13 10:50:33;;;;;;;10.13;2.33;;;19.70;86.00;;;20.33;51.85;98618.41;5000600;28;20460;-78
2022/06/13 10:53:08;;;;;;;9.33;2.00;;;19.70;85.50;;;20.33;51.08;98618.41;5001186;28;20518;-78
2022/06/13 10:55:44;;;;;;;6.23;2.10;;;19.70;85.20;;;20.40;51.36;98603.16;5000111;28;20521;-78
2022/06/13 10:58:22;;;;;;;6.80;1.80;;;19.70;86.30;;;20.40;51.23;98618.28;5001164;28;20499;-78
2022/06/13 11:01:12;;;;;;;3.97;1.90;;;19.80;85.70;;;20.44;52.48;98614.88;5000884;28;20463;-78
2022/06/13 11:03:59;;;;;;;5.33;1.90;;;19.80;87.20;;;20.49;53.23;98612.34;5000530;28;20490;-78
2022/06/13 11:06:41;;;;;;;4.83;1.97;;;19.90;87.90;;;20.55;53.06;98608.72;4998632;28;20980;-78